Time;durP1;ratioP1;P1;durP2;ratioP2;P2;SDS_P1;SDS_P2;PMS_P1;PMS_P2;Temp;Humidity;BMP_temperature;BMP_pressure;BME280_temperature;BME280_humidity;BME280_pressure;Samples;Min_cycle;Max_cycle;Signal;HPM_P1;HPM_P2
2021/10/11 00:01:09;;;;;;;;;;;;;;;19.18;68.43;101569.50;5072554;28;1613;-41
2021/10/11 00:03:35;;;;;;;;;;;;;;;19.18;68.90;101578.44;5076475;28;1468;-41
2021/10/11 00:06:02;;;;;;;;;;;;;;;19.20;68.99;101591.69;5077301;28;1090;-41
2021/10/11 00:08:29;;;;;;;;;;;;;;;19.19;69.00;101571.25;5075706;28;2087;-42
2021/10/11 00:10:56;;;;;;;;;;;;;;;19.17;69.18;101551.72;5076689;28;1995;-41
2021/10/11 00:13:23;;;;;;;;;;;;;;;19.18;68.36;101559.66;5072194;28;1816;-41
2021/10/11 00:15:49;;;;;;;;;;;;;;;19.19;68.87;101558.69;5073303;28;1778;-41
2021/10/11 00:18:18;;;;;;;;;;;;;;;19.15;69.44;101553.69;5076533;28;1850;-41
2021/10/11 00:20:44;;;;;;;;;;;;;;;19.12;68.47;101532.44;5075499;28;1550;-41
2021/10/11 00:23:11;;;;;;;;;;;;;;;19.12;68.84;101533.34;5075580;28;2012;-42
2021/10/11 00:25:39;;;;;;;;;;;;;;;19.14;69.11;101534.06;5076140;28;1610;-41
2021/10/11 00:28:06;;;;;;;;;;;;;;;19.10;68.41;101519.19;5072580;28;1769;-41
2021/10/11 00:30:32;;;;;;;;;;;;;;;19.10;69.57;101526.34;5076089;28;1910;-41
2021/10/11 00:32:58;;;;;;;;;;;;;;;19.13;69.47;101535.03;5076150;28;1808;-41
2021/10/11 00:35:25;;;;;;;;;;;;;;;19.10;68.67;101535.28;5069231;28;1521;-41
2021/10/11 00:37:51;;;;;;;;;;;;;;;19.09;68.59;101555.00;5068725;28;2073;-41
2021/10/11 00:40:18;;;;;;;;;;;;;;;19.14;68.84;101530.50;5073755;28;1572;-41
2021/10/11 00:42:46;;;;;;;;;;;;;;;19.17;68.93;101538.31;5072398;28;1794;-41
2021/10/11 00:45:12;;;;;;;;;;;;;;;19.15;69.19;101534.91;5075439;28;1682;-41
2021/10/11 00:47:39;;;;;;;;;;;;;;;19.14;68.74;101535.88;5075656;28;1765;-41
2021/10/11 00:50:06;;;;;;;;;;;;;;;19.10;69.51;101523.69;5069626;28;1980;-41
2021/10/11 00:52:33;;;;;;;;;;;;;;;19.07;69.45;101522.94;5066254;28;1697;-41
2021/10/11 00:54:59;;;;;;;;;;;;;;;19.06;69.35;101526.59;5075175;28;1724;-41
2021/10/11 00:57:26;;;;;;;;;;;;;;;19.08;68.23;101495.16;5075549;28;1608;-41
2021/10/11 00:59:53;;;;;;;;;;;;;;;19.12;68.39;101514.56;5074659;28;1570;-42
2021/10/11 01:02:22;;;;;;;;;;;;;;;19.09;68.12;101498.69;5075377;28;1815;-41
2021/10/11 01:04:49;;;;;;;;;;;;;;;19.10;69.01;101515.63;5075347;28;1504;-41
2021/10/11 01:07:15;;;;;;;;;;;;;;;19.10;68.69;101494.19;5071721;28;1682;-41
2021/10/11 01:09:41;;;;;;;;;;;;;;;19.08;69.12;101500.53;5075153;28;1973;-41
2021/10/11 01:12:08;;;;;;;;;;;;;;;19.09;68.22;101501.38;5074498;28;1602;-41
2021/10/11 01:14:34;;;;;;;;;;;;;;;19.06;68.31;101504.31;5070689;28;1830;-42
2021/10/11 01:17:02;;;;;;;;;;;;;;;19.06;69.14;101489.06;5075486;28;1687;-42
2021/10/11 01:19:29;;;;;;;;;;;;;;;19.08;68.18;101497.00;5072166;28;1459;-41
2021/10/11 01:21:57;;;;;;;;;;;;;;;19.04;69.41;101482.97;5073465;28;1703;-41
2021/10/11 01:24:23;;;;;;;;;;;;;;;19.07;68.08;101490.78;5075173;28;1965;-42
2021/10/11 01:26:50;;;;;;;;;;;;;;;19.05;68.12;101484.69;5074834;28;1771;-42
2021/10/11 01:29:18;;;;;;;;;;;;;;;19.04;68.85;101482.97;5074227;28;1533;-41
2021/10/11 01:31:44;;;;;;;;;;;;;;;19.02;68.82;101476.88;5075503;28;1166;-41
2021/10/11 01:34:11;;;;;;;;;;;;;;;19.02;68.36;101484.94;5074246;28;2075;-42
2021/10/11 01:36:38;;;;;;;;;;;;;;;19.02;69.39;101479.56;5075053;28;1769;-42
2021/10/11 01:39:06;;;;;;;;;;;;;;;19.03;68.18;101465.19;5074919;28;1573;-41
2021/10/11 01:41:33;;;;;;;;;;;;;;;19.01;68.30;101467.13;5075742;28;1058;-41
2021/10/11 01:44:00;;;;;;;;;;;;;;;19.04;68.57;101472.25;5074182;28;1947;-42
2021/10/11 01:46:26;;;;;;;;;;;;;;;19.03;68.08;101465.19;5073223;28;1591;-41
2021/10/11 01:48:53;;;;;;;;;;;;;;;19.02;69.02;101459.94;5074390;28;1894;-41
2021/10/11 01:51:20;;;;;;;;;;;;;;;19.04;69.29;101472.25;5074544;28;1973;-41
2021/10/11 01:53:46;;;;;;;;;;;;;;;18.99;69.19;101462.84;5074355;28;1533;-41
2021/10/11 01:56:14;;;;;;;;;;;;;;;19.00;69.24;101462.75;5074482;28;1937;-42
2021/10/11 01:58:41;;;;;;;;;;;;;;;18.99;69.17;101466.38;5074318;28;1824;-41
2021/10/11 02:01:07;;;;;;;;;;;;;;;19.02;68.06;101459.94;5154190;22;3726;-43
2021/10/11 02:03:33;;;;;;;;;;;;;;;19.01;68.14;101466.28;4972106;28;1422;-44
2021/10/11 02:06:00;;;;;;;;;;;;;;;19.03;68.64;101461.66;4974659;28;1086;-45
2021/10/11 02:08:26;;;;;;;;;;;;;;;18.99;69.14;101461.03;4972982;28;1757;-43
2021/10/11 02:10:53;;;;;;;;;;;;;;;19.01;68.75;101436.78;4969811;28;1924;-43
2021/10/11 02:13:21;;;;;;;;;;;;;;;19.01;69.15;101448.34;4974007;28;1675;-43
2021/10/11 02:15:47;;;;;;;;;;;;;;;19.02;68.73;101457.25;4971467;28;1762;-43
2021/10/11 02:18:13;;;;;;;;;;;;;;;19.03;68.42;101457.13;4974215;28;1628;-43
2021/10/11 02:20:40;;;;;;;;;;;;;;;19.02;68.20;101452.75;4974239;28;1763;-43
2021/10/11 02:23:06;;;;;;;;;;;;;;;19.01;68.29;101458.22;4970515;28;1704;-44
2021/10/11 02:25:33;;;;;;;;;;;;;;;18.97;68.16;101452.25;4966953;28;1541;-43
2021/10/11 02:27:59;;;;;;;;;;;;;;;19.01;68.00;101445.69;4969366;28;1511;-43
2021/10/11 02:30:27;;;;;;;;;;;;;;;18.93;68.76;101440.06;4973969;28;1906;-43
2021/10/11 02:32:54;;;;;;;;;;;;;;;19.03;68.84;101438.38;4974120;28;1710;-43
2021/10/11 02:35:20;;;;;;;;;;;;;;;19.59;67.43;101458.16;4974382;28;1852;-43
2021/10/11 02:37:47;;;;;;;;;;;;;;;20.08;64.85;101442.63;4973480;28;1942;-43
2021/10/11 02:40:14;;;;;;;;;;;;;;;20.08;65.90;101438.13;4972897;28;1837;-44
2021/10/11 02:42:40;;;;;;;;;;;;;;;19.96;65.42;101444.50;4972790;28;1941;-43
2021/10/11 02:45:07;;;;;;;;;;;;;;;20.12;66.33;101436.88;4967346;28;1596;-44
2021/10/11 02:47:35;;;;;;;;;;;;;;;20.15;66.08;101452.72;4966165;28;1558;-44
2021/10/11 02:50:01;;;;;;;;;;;;;;;20.18;65.07;101444.44;4960282;28;2015;-43
2021/10/11 02:52:31;;;;;;;;;;;;;;;20.23;65.07;101454.78;4970459;28;1287;-43
2021/10/11 02:54:58;;;;;;;;;;;;;;;20.25;64.97;101453.69;4964883;28;1450;-43
2021/10/11 02:57:24;;;;;;;;;;;;;;;20.22;65.37;101448.56;4962661;28;1992;-43
2021/10/11 02:59:51;;;;;;;;;;;;;;;20.22;65.32;101448.56;4971217;28;1517;-43
2021/10/11 03:02:18;;;;;;;;;;;;;;;20.33;64.58;101446.81;4968761;28;1837;-43
2021/10/11 03:04:47;;;;;;;;;;;;;;;20.32;64.69;101429.84;4972976;28;1776;-43
2021/10/11 03:07:14;;;;;;;;;;;;;;;20.28;64.62;101425.72;4961452;28;1978;-43
2021/10/11 03:09:40;;;;;;;;;;;;;;;20.30;65.77;101433.66;4972692;28;1769;-43
2021/10/11 03:12:07;;;;;;;;;;;;;;;20.25;64.85;101421.47;4973131;28;1969;-43
2021/10/11 03:14:33;;;;;;;;;;;;;;;20.31;65.87;101408.50;4973187;28;1726;-43
2021/10/11 03:16:59;;;;;;;;;;;;;;;20.37;65.10;101407.97;4974015;28;1082;-43
2021/10/11 03:19:26;;;;;;;;;;;;;;;20.39;64.73;101397.94;4973438;28;1408;-43
2021/10/11 03:21:54;;;;;;;;;;;;;;;20.48;65.20;101412.47;4972781;28;1926;-44
2021/10/11 03:24:20;;;;;;;;;;;;;;;20.42;64.67;101405.75;4971592;28;1671;-43
2021/10/11 03:26:47;;;;;;;;;;;;;;;20.52;64.42;101395.09;4973131;28;2034;-43
2021/10/11 03:29:13;;;;;;;;;;;;;;;20.43;65.39;101392.22;4973189;28;1709;-43
2021/10/11 03:31:40;;;;;;;;;;;;;;;20.39;64.92;101397.94;4972466;28;1971;-43
2021/10/11 03:34:06;;;;;;;;;;;;;;;20.48;65.26;101389.13;4972793;28;1938;-42
2021/10/11 03:36:33;;;;;;;;;;;;;;;20.57;65.08;101390.16;4972313;28;1469;-43
2021/10/11 03:39:01;;;;;;;;;;;;;;;20.45;65.54;101405.47;4973359;28;1146;-43
2021/10/11 03:41:27;;;;;;;;;;;;;;;20.46;64.78;101396.47;4973180;28;998;-42
2021/10/11 03:43:53;;;;;;;;;;;;;;;20.41;65.57;101390.63;4972348;28;1769;-42
2021/10/11 03:46:21;;;;;;;;;;;;;;;20.51;64.18;101388.84;4972484;28;1965;-43
2021/10/11 03:48:47;;;;;;;;;;;;;;;20.59;65.16;101397.16;4972190;28;1480;-43
2021/10/11 03:51:14;;;;;;;;;;;;;;;20.60;65.27;101398.84;4973819;28;1977;-43
2021/10/11 03:53:40;;;;;;;;;;;;;;;20.63;64.85;101392.34;4972378;28;1757;-46
2021/10/11 03:56:08;;;;;;;;;;;;;;;20.49;65.12;101388.13;4972662;28;1982;-43
2021/10/11 03:58:35;;;;;;;;;;;;;;;20.27;65.62;101384.59;4968212;28;2154;-43
2021/10/11 04:01:01;;;;;;;;;;;;;;;20.13;66.43;101384.03;4973128;28;1091;-43
2021/10/11 04:03:28;;;;;;;;;;;;;;;19.97;66.09;101384.44;4972636;28;2315;-43
2021/10/11 04:05:54;;;;;;;;;;;;;;;19.94;66.26;101400.81;4972501;28;1560;-43
2021/10/11 04:08:21;;;;;;;;;;;;;;;19.86;66.36;101404.13;4972797;28;1495;-43
2021/10/11 04:10:55;;;;;;;;;;;;;;;19.79;66.55;101393.03;4972147;28;1898;-43
2021/10/11 04:13:23;;;;;;;;;;;;;;;19.80;66.53;101405.47;4971951;28;1739;-43
2021/10/11 04:15:49;;;;;;;;;;;;;;;19.77;66.50;101405.72;4972482;28;1930;-43
2021/10/11 04:18:16;;;;;;;;;;;;;;;19.78;67.34;101391.34;4972482;28;1425;-43
2021/10/11 04:20:42;;;;;;;;;;;;;;;19.79;67.19;101398.38;4973085;28;1075;-44
2021/10/11 04:23:10;;;;;;;;;;;;;;;19.84;67.31;101389.97;4971324;28;1571;-44
2021/10/11 04:25:43;;;;;;;;;;;;;;;19.89;67.27;101400.34;4972508;28;1803;-46
2021/10/11 04:28:12;;;;;;;;;;;;;;;19.83;67.07;101391.78;4970964;28;1965;-47
2021/10/11 04:30:45;;;;;;;;;;;;;;;19.79;67.49;101382.28;4972220;28;1980;-46
2021/10/11 04:33:13;;;;;;;;;;;;;;;19.74;68.10;101397.94;4972438;28;1433;-44
2021/10/11 04:35:54;;;;;;;;;;;;;;;19.56;67.96;101402.94;4962417;28;1525;-44
2021/10/11 04:38:29;;;;;;;;;;;;;;;19.66;67.50;101403.03;4971287;28;1526;-44
2021/10/11 04:40:57;;;;;;;;;;;;;;;19.78;66.98;101402.06;4968774;28;1767;-44
2021/10/11 04:43:28;;;;;;;;;;;;;;;19.72;66.88;101399.88;4971500;28;1835;-44
2021/10/11 04:46:02;;;;;;;;;;;;;;;19.63;66.83;101382.66;4975405;28;1439;-45
2021/10/11 04:48:29;;;;;;;;;;;;;;;19.67;67.66;101386.78;4979211;28;1619;-44
2021/10/11 04:50:59;;;;;;;;;;;;;;;19.70;66.27;101377.66;4976693;28;1985;-44
2021/10/11 04:53:27;;;;;;;;;;;;;;;19.68;66.85;101390.34;4976089;28;1763;-45
2021/10/11 04:55:55;;;;;;;;;;;;;;;19.64;66.82;101384.38;4971792;28;1342;-45
2021/10/11 04:58:24;;;;;;;;;;;;;;;19.65;67.86;101396.78;4976038;28;1802;-44
2021/10/11 05:00:52;;;;;;;;;;;;;;;19.58;67.83;101392.06;4973474;28;2647;-44
2021/10/11 05:03:24;;;;;;;;;;;;;;;19.61;66.20;101398.03;4975948;28;1677;-44
2021/10/11 05:05:51;;;;;;;;;;;;;;;19.58;66.03;101384.03;4975489;28;1083;-44
2021/10/11 05:08:19;;;;;;;;;;;;;;;19.61;67.06;101381.09;4975739;28;1654;-44
2021/10/11 05:10:55;;;;;;;;;;;;;;;19.54;67.09;101388.78;4975168;28;1970;-44
2021/10/11 05:13:24;;;;;;;;;;;;;;;19.51;66.75;101377.44;4975370;28;1990;-44
2021/10/11 05:16:02;;;;;;;;;;;;;;;19.52;67.51;101379.13;4975234;28;1669;-44
2021/10/11 05:18:36;;;;;;;;;;;;;;;19.51;66.98;101380.13;4975837;28;1987;-44
2021/10/11 05:21:04;;;;;;;;;;;;;;;19.46;67.80;101386.72;4976208;28;2210;-44
2021/10/11 05:23:34;;;;;;;;;;;;;;;19.49;67.95;101390.97;4975677;28;1803;-45
2021/10/11 05:26:03;;;;;;;;;;;;;;;19.45;67.12;101385.00;4975900;28;1948;-44
2021/10/11 05:28:34;;;;;;;;;;;;;;;19.48;68.86;101383.91;4974780;28;1428;-45
2021/10/11 05:31:04;;;;;;;;;;;;;;;19.46;67.11;101386.72;4966700;28;1994;-46
2021/10/11 05:33:47;;;;;;;;;;;;;;;19.36;67.67;101399.16;4968410;28;1464;-44
2021/10/11 05:36:18;;;;;;;;;;;;;;;19.36;66.71;101388.44;4978832;28;1272;-44
2021/10/11 05:38:53;;;;;;;;;;;;;;;19.34;66.04;101374.28;4969944;28;1130;-44
2021/10/11 05:41:27;;;;;;;;;;;;;;;19.55;65.72;101370.84;4968660;28;1486;-44
2021/10/11 05:44:04;;;;;;;;;;;;;;;20.08;64.25;101379.03;4961695;28;1694;-44
2021/10/11 05:46:36;;;;;;;;;;;;;;;19.77;64.30;101378.88;4958386;28;1943;-44
2021/10/11 05:49:03;;;;;;;;;;;;;;;19.91;65.03;101364.31;4971922;28;1950;-44
2021/10/11 05:51:38;;;;;;;;;;;;;;;20.39;64.10;101368.41;4975112;28;1906;-44
2021/10/11 05:56:45;;;;;;;;;;;;;;;20.75;63.68;101360.88;4964955;28;2539;-45
2021/10/11 05:59:11;;;;;;;;;;;;;;;20.74;62.93;101365.41;4975068;28;1085;-44
2021/10/11 06:01:38;;;;;;;;;;;;;;;20.17;66.07;101364.84;4973754;28;1848;-44
2021/10/11 06:04:04;;;;;;;;;;;;;;;20.11;65.98;101353.75;4972974;28;1594;-44
2021/10/11 06:06:32;;;;;;;;;;;;;;;20.21;65.50;101374.38;4974674;28;1421;-44
2021/10/11 06:08:59;;;;;;;;;;;;;;;20.32;64.40;101372.59;4974809;28;1478;-44
2021/10/11 06:11:25;;;;;;;;;;;;;;;20.30;65.60;101379.94;4974281;28;1910;-44
2021/10/11 06:13:52;;;;;;;;;;;;;;;20.30;65.50;101374.56;4973632;28;2299;-44
2021/10/11 06:16:18;;;;;;;;;;;;;;;20.19;65.12;101368.28;4972673;28;1614;-44
2021/10/11 06:18:44;;;;;;;;;;;;;;;20.18;65.82;101371.91;4969417;28;1622;-44
2021/10/11 06:33:43;;;;;;;;;;;;;;;19.70;66.17;101369.63;4714665;27;10001789;-43
2021/10/11 06:36:10;;;;;;;;;;;;;;;19.63;66.88;101368.41;5067056;28;1945;-43
2021/10/11 06:38:36;;;;;;;;;;;;;;;19.57;67.09;101377.78;5067040;28;1628;-44
2021/10/11 06:41:03;;;;;;;;;;;;;;;19.55;67.20;101373.53;5067562;28;1975;-44
2021/10/11 06:43:29;;;;;;;;;;;;;;;19.52;67.09;101374.66;5068423;28;1724;-44
2021/10/11 06:45:56;;;;;;;;;;;;;;;19.50;67.02;101362.31;5069177;28;1093;-43
2021/10/11 06:48:23;;;;;;;;;;;;;;;19.54;66.44;101377.22;5067544;28;1831;-43
2021/10/11 06:50:50;;;;;;;;;;;;;;;19.54;67.65;101371.84;5072812;28;2202;-44
2021/10/11 06:53:17;;;;;;;;;;;;;;;19.55;67.18;101374.38;5067765;28;1704;-44
2021/10/11 06:55:43;;;;;;;;;;;;;;;19.52;66.56;101374.66;5066881;28;1468;-43
2021/10/11 06:58:10;;;;;;;;;;;;;;;19.51;67.07;101367.56;5068095;28;1671;-43
2021/10/11 07:00:37;;;;;;;;;;;;;;;19.51;68.06;101382.81;5068521;28;1839;-45
2021/10/11 07:03:05;;;;;;;;;;;;;;;19.53;67.82;101364.75;5067808;28;1910;-43
2021/10/11 07:05:31;;;;;;;;;;;;;;;19.47;68.56;101369.63;5069987;28;1929;-43
2021/10/11 07:08:13;;;;;;;;;;;;;;;19.48;67.85;101384.75;5068492;28;2163;-42
2021/10/11 07:10:53;;;;;;;;;;;;;;;19.51;68.33;101366.72;5066486;28;1566;-43
2021/10/11 07:13:23;;;;;;;;;;;;;;;19.47;67.05;101361.59;5059277;28;2087;-44
2021/10/11 07:15:54;;;;;;;;;;;;;;;19.45;68.18;101357.31;5067682;28;1936;-43
2021/10/11 07:18:21;;;;;;;;;;;;;;;19.46;67.70;101341.13;5063818;28;1507;-44
2021/10/11 07:20:51;;;;;;;;;;;;;;;19.47;68.13;101353.53;5060296;28;1066;-43
2021/10/11 07:23:17;;;;;;;;;;;;;;;19.42;67.45;101342.34;5067407;28;1979;-44
2021/10/11 07:25:47;;;;;;;;;;;;;;;19.42;68.14;101352.22;5059593;28;1806;-44
2021/10/11 07:28:14;;;;;;;;;;;;;;;19.41;67.00;101339.78;5065117;28;1754;-43
2021/10/11 07:30:40;;;;;;;;;;;;;;;19.38;67.32;101350.78;5054229;28;1559;-43
2021/10/11 07:33:07;;;;;;;;;;;;;;;19.38;67.45;101358.81;5062297;28;1816;-43
2021/10/11 07:35:34;;;;;;;;;;;;;;;19.37;68.11;101347.22;5054730;28;1182;-43
2021/10/11 07:38:01;;;;;;;;;;;;;;;19.43;67.61;101348.56;5053367;28;1882;-43
2021/10/11 07:40:27;;;;;;;;;;;;;;;19.44;67.24;101353.81;5053184;28;1404;-43
2021/10/11 07:42:55;;;;;;;;;;;;;;;19.43;68.63;101344.03;5053888;28;1983;-43
2021/10/11 07:45:22;;;;;;;;;;;;;;;19.38;68.36;101330.16;5053872;28;1753;-43
2021/10/11 07:47:48;;;;;;;;;;;;;;;19.39;67.36;101318.44;5053795;28;1787;-44
2021/10/11 07:50:15;;;;;;;;;;;;;;;19.32;68.08;101324.41;5054698;28;1060;-43
2021/10/11 07:52:41;;;;;;;;;;;;;;;19.22;68.18;101330.53;5053022;28;1634;-44
2021/10/11 07:55:08;;;;;;;;;;;;;;;19.23;68.56;101336.75;5053045;28;1542;-44
2021/10/11 07:57:35;;;;;;;;;;;;;;;19.00;67.84;101344.81;5053326;28;1637;-43
2021/10/11 08:00:03;;;;;;;;;;;;;;;19.17;67.49;101343.44;5053776;28;1873;-43
2021/10/11 08:02:30;;;;;;;;;;;;;;;19.25;67.82;101356.25;5053106;28;1984;-43
2021/10/11 08:04:56;;;;;;;;;;;;;;;19.27;67.95;101359.66;5054764;28;997;-43
2021/10/11 08:07:23;;;;;;;;;;;;;;;19.31;67.73;101349.56;5045587;28;1548;-45
2021/10/11 08:09:49;;;;;;;;;;;;;;;19.35;66.74;101349.16;5051948;28;1601;-43
2021/10/11 08:12:16;;;;;;;;;;;;;;;19.41;66.74;101339.78;5041472;28;1747;-43
2021/10/11 08:14:44;;;;;;;;;;;;;;;19.39;67.08;101347.94;5052808;28;1685;-43
2021/10/11 08:17:12;;;;;;;;;;;;;;;19.38;67.48;101323.94;5042042;28;1564;-43
2021/10/11 08:19:38;;;;;;;;;;;;;;;19.34;67.63;101322.47;5040338;28;1958;-44
2021/10/11 08:22:05;;;;;;;;;;;;;;;19.36;66.89;101336.59;5042195;28;1926;-44
2021/10/11 08:24:31;;;;;;;;;;;;;;;19.35;66.86;101332.22;5039633;28;1872;-44
2021/10/11 08:26:58;;;;;;;;;;;;;;;19.33;66.86;101334.19;5039872;28;1770;-44
2021/10/11 08:29:25;;;;;;;;;;;;;;;19.31;66.84;101336.97;5040057;28;1342;-44
2021/10/11 08:31:52;;;;;;;;;;;;;;;19.31;67.34;101339.66;5042525;28;1739;-43
2021/10/11 08:34:20;;;;;;;;;;;;;;;19.32;66.69;101333.34;5046067;28;1851;-42
2021/10/11 08:36:47;;;;;;;;;;;;;;;19.28;67.37;101326.53;5041571;28;1492;-44
2021/10/11 08:39:13;;;;;;;;;;;;;;;19.28;67.01;101331.88;5044036;28;1944;-43
2021/10/11 08:41:41;;;;;;;;;;;;;;;19.27;66.71;101322.13;5035029;28;1910;-43
2021/10/11 08:44:08;;;;;;;;;;;;;;;19.30;66.86;101311.16;5038079;28;1911;-43
2021/10/11 08:46:34;;;;;;;;;;;;;;;19.30;67.63;101323.69;5039358;28;1424;-44
2021/10/11 08:49:01;;;;;;;;;;;;;;;19.25;66.84;101319.56;5039109;28;1483;-43
2021/10/11 08:51:29;;;;;;;;;;;;;;;19.28;66.71;101323.84;5038853;28;1469;-43
2021/10/11 08:53:55;;;;;;;;;;;;;;;19.27;67.13;101327.47;5043067;28;1852;-43
2021/10/11 08:56:22;;;;;;;;;;;;;;;19.30;67.08;101321.88;5050249;28;1938;-43
2021/10/11 08:58:49;;;;;;;;;;;;;;;19.33;67.62;101315.41;5048077;28;1931;-43
2021/10/11 09:01:16;;;;;;;;;;;;;;;19.32;67.69;101308.34;5051670;28;1625;-43
2021/10/11 09:03:43;;;;;;;;;;;;;;;19.29;66.44;101298.72;5051730;28;1981;-43
2021/10/11 09:06:10;;;;;;;;;;;;;;;19.30;67.21;101295.06;5053440;28;1149;-43
2021/10/11 09:08:39;;;;;;;;;;;;;;;19.31;66.80;101291.41;5052778;28;1946;-42
2021/10/11 09:11:06;;;;;;;;;;;;;;;19.28;67.08;101288.97;5045650;28;1639;-43
2021/10/11 09:13:38;;;;;;;;;;;;;;;19.28;67.66;101297.03;5052064;28;2060;-43
2021/10/11 09:16:05;;;;;;;;;;;;;;;19.25;67.65;101286.53;5048545;28;1734;-42
2021/10/11 09:18:32;;;;;;;;;;;;;;;19.28;66.43;101294.34;5051806;28;1915;-44
2021/10/11 09:20:59;;;;;;;;;;;;;;;19.25;66.45;101283.84;5044888;28;1473;-45
2021/10/11 09:23:29;;;;;;;;;;;;;;;19.28;66.86;101273.75;5040830;28;2925;-43
2021/10/11 09:25:57;;;;;;;;;;;;;;;19.28;66.99;101281.78;5042196;28;1721;-43
2021/10/11 09:28:25;;;;;;;;;;;;;;;19.30;67.17;101278.09;5049180;28;1218;-44
2021/10/11 09:30:52;;;;;;;;;;;;;;;19.31;67.51;101280.66;5043443;28;1698;-43
2021/10/11 09:33:21;;;;;;;;;;;;;;;19.34;66.39;101277.75;5045007;28;1491;-43
2021/10/11 09:35:52;;;;;;;;;;;;;;;19.35;66.72;101270.56;5017139;28;1941;-43
2021/10/11 09:38:20;;;;;;;;;;;;;;;19.33;66.17;101249.22;5049078;28;1518;-44
2021/10/11 09:40:58;;;;;;;;;;;;;;;19.38;66.27;101259.59;5043842;28;1782;-44
2021/10/11 09:43:39;;;;;;;;;;;;;;;19.36;66.13;101240.94;5051128;28;1983;-44
2021/10/11 09:46:13;;;;;;;;;;;;;;;19.34;66.77;101234.84;5050809;28;1765;-43
2021/10/11 09:48:50;;;;;;;;;;;;;;;19.38;66.85;101249.72;5047594;28;1668;-43
2021/10/11 09:51:25;;;;;;;;;;;;;;;19.36;66.08;101235.56;5046922;28;2112;-43
2021/10/11 09:53:53;;;;;;;;;;;;;;;19.36;67.21;101242.75;5050686;28;1723;-44
2021/10/11 09:59:11;;;;;;;;;;;;;;;19.37;67.32;101236.41;5046970;28;2088;-45
2021/10/11 10:01:41;;;;;;;;;;;;;;;19.36;67.11;101230.22;5038311;28;1865;-44
2021/10/11 10:04:08;;;;;;;;;;;;;;;19.35;66.25;101223.13;5042892;28;1946;-45
2021/10/11 10:06:36;;;;;;;;;;;;;;;19.35;66.87;101217.75;5047000;28;1597;-44
2021/10/11 10:09:08;;;;;;;;;;;;;;;19.35;66.59;101209.72;5043487;28;1431;-43
2021/10/11 10:11:38;;;;;;;;;;;;;;;19.30;59.04;101195.84;5039855;28;1723;-43
2021/10/11 10:14:14;;;;;;;;;;;;;;;18.99;64.54;101190.31;5038562;28;1692;-44
2021/10/11 10:19:35;;;;;;;;;;;;;;;19.28;66.24;101176.38;5041784;28;1907;-43
2021/10/11 10:22:12;;;;;;;;;;;;;;;19.33;65.86;101176.81;5051130;28;1966;-44
2021/10/11 10:24:41;;;;;;;;;;;;;;;19.35;65.63;101174.84;5049823;28;1711;-43
2021/10/11 10:27:17;;;;;;;;;;;;;;;19.31;65.79;101173.41;5049501;28;1729;-43
2021/10/11 10:29:58;;;;;;;;;;;;;;;19.34;65.83;101167.81;5046204;28;1579;-43
2021/10/11 10:32:25;;;;;;;;;;;;;;;19.38;65.58;101152.31;5049278;28;1786;-43
2021/10/11 10:34:59;;;;;;;;;;;;;;;19.42;66.89;101159.97;5034795;28;1653;-43
2021/10/11 10:37:39;;;;;;;;;;;;;;;19.76;64.83;101153.63;5050980;28;1538;-42
2021/10/11 10:40:10;;;;;;;;;;;;;;;20.16;64.79;101128.69;5047253;28;1717;-42
2021/10/11 10:42:36;;;;;;;;;;;;;;;19.99;65.08;101130.16;5039118;28;1913;-42
2021/10/11 10:45:17;;;;;;;;;;;;;;;19.86;64.78;101141.94;5041261;28;2095;-43
2021/10/11 10:47:44;;;;;;;;;;;;;;;20.13;65.50;101131.63;5038669;28;1695;-42
2021/10/11 10:50:27;;;;;;;;;;;;;;;20.23;64.06;101138.75;5043965;28;1639;-42
2021/10/11 10:52:57;;;;;;;;;;;;;;;20.22;65.29;101145.09;5039619;28;1912;-42
2021/10/11 10:55:27;;;;;;;;;;;;;;;20.29;65.39;101152.63;5049236;28;1625;-43
2021/10/11 10:57:55;;;;;;;;;;;;;;;20.35;64.16;101135.97;5050885;28;1697;-42
2021/10/11 11:00:28;;;;;;;;;;;;;;;20.41;64.75;101135.41;5051090;28;1561;-42
2021/10/11 11:02:54;;;;;;;;;;;;;;;20.31;65.27;101132.69;5046742;28;1982;-45
2021/10/11 11:05:26;;;;;;;;;;;;;;;20.17;65.59;101114.25;5050859;28;1207;-42
2021/10/11 11:07:55;;;;;;;;;;;;;;;20.22;64.66;101112.88;5051266;28;2000;-43
2021/10/11 11:10:25;;;;;;;;;;;;;;;20.21;65.38;101097.78;5046767;28;1844;-43
2021/10/11 11:12:57;;;;;;;;;;;;;;;20.43;64.02;101114.63;5053527;28;1800;-43
2021/10/11 11:15:48;;;;;;;;;;;;;;;20.61;63.71;101082.63;5049250;28;1814;-43
2021/10/11 11:18:25;;;;;;;;;;;;;;;20.94;63.52;101086.78;5046334;28;1842;-42
2021/10/11 11:20:52;;;;;;;;;;;;;;;20.93;62.79;101086.91;5035430;28;1124;-42
2021/10/11 11:23:21;;;;;;;;;;;;;;;20.63;63.54;101086.88;5045075;28;1946;-43
2021/10/11 11:25:49;;;;;;;;;;;;;;;20.50;64.91;101113.13;5051894;28;1580;-43
2021/10/11 11:28:17;;;;;;;;;;;;;;;20.51;63.97;101104.06;5046970;28;1792;-43
2021/10/11 11:30:45;;;;;;;;;;;;;;;20.63;64.58;101107.50;5048067;28;1820;-43
2021/10/11 11:33:14;;;;;;;;;;;;;;;20.61;64.38;101093.38;5049672;28;1650;-43
2021/10/11 11:35:44;;;;;;;;;;;;;;;20.69;63.43;101071.19;5043516;28;1750;-43
2021/10/11 11:38:12;;;;;;;;;;;;;;;20.51;63.83;101081.72;5043679;28;1721;-43
2021/10/11 11:40:39;;;;;;;;;;;;;;;20.57;63.52;101071.28;5046138;28;1785;-43
2021/10/11 11:43:07;;;;;;;;;;;;;;;20.64;64.05;101067.06;5040614;28;1906;-43
2021/10/11 11:45:38;;;;;;;;;;;;;;;20.53;64.76;101088.69;5054080;28;1604;-42
2021/10/11 11:48:05;;;;;;;;;;;;;;;20.77;64.18;101057.88;5042669;28;1638;-45
2021/10/11 11:50:31;;;;;;;;;;;;;;;21.11;63.32;101061.03;5054433;28;1170;-44
2021/10/11 11:53:04;;;;;;;;;;;;;;;21.14;62.40;101057.22;5046242;28;1551;-41
2021/10/11 11:55:31;;;;;;;;;;;;;;;20.93;63.35;101050.16;5048020;28;1702;-41
2021/10/11 11:57:58;;;;;;;;;;;;;;;20.89;64.31;101050.53;5048486;28;1785;-44
2021/10/11 12:00:25;;;;;;;;;;;;;;;20.70;64.33;101046.03;5041775;28;1724;-44
2021/10/11 12:02:52;;;;;;;;;;;;;;;20.39;65.43;101067.56;5040227;28;1980;-44
2021/10/11 12:05:19;;;;;;;;;;;;;;;20.58;64.33;101051.47;5041818;28;1424;-44
2021/10/11 12:07:46;;;;;;;;;;;;;;;20.67;63.86;101052.50;5047072;28;1547;-44
2021/10/11 12:10:17;;;;;;;;;;;;;;;20.82;64.27;101042.22;5045390;28;1495;-44
2021/10/11 12:12:43;;;;;;;;;;;;;;;20.74;63.67;101050.13;5052303;28;1730;-43
2021/10/11 12:15:17;;;;;;;;;;;;;;;20.70;64.10;101038.81;5041644;28;1854;-44
2021/10/11 12:17:43;;;;;;;;;;;;;;;20.60;65.02;101041.47;5039035;28;1551;-44
2021/10/11 12:20:10;;;;;;;;;;;;;;;20.53;64.12;101055.56;5034781;28;1334;-43
2021/10/11 12:22:37;;;;;;;;;;;;;;;20.61;58.36;101037.81;5034465;28;1672;-44
2021/10/11 12:25:05;;;;;;;;;;;;;;;20.79;62.13;101054.09;5039690;28;1906;-44
2021/10/11 12:27:33;;;;;;;;;;;;;;;20.52;64.05;101038.59;5035103;28;1482;-44
2021/10/11 12:30:01;;;;;;;;;;;;;;;20.33;64.58;101057.34;5043863;28;1933;-44
2021/10/11 12:32:29;;;;;;;;;;;;;;;20.29;65.64;101035.28;5053127;28;1616;-44
2021/10/11 12:34:56;;;;;;;;;;;;;;;20.58;64.24;101038.03;5046676;28;1807;-43
2021/10/11 12:37:23;;;;;;;;;;;;;;;20.59;63.89;101053.22;5041385;28;1490;-44
2021/10/11 12:39:52;;;;;;;;;;;;;;;20.39;64.35;101062.19;5046166;28;1385;-44
2021/10/11 12:42:19;;;;;;;;;;;;;;;20.26;65.80;101031.06;5047783;28;1584;-43
2021/10/11 12:44:49;;;;;;;;;;;;;;;20.20;65.11;101044.19;5053009;28;1972;-44
2021/10/11 12:47:22;;;;;;;;;;;;;;;20.19;66.24;101055.91;5048625;28;1534;-44
2021/10/11 12:49:48;;;;;;;;;;;;;;;20.16;65.21;101048.13;5053754;28;1074;-43
2021/10/11 12:52:16;;;;;;;;;;;;;;;20.20;65.39;101053.09;5042182;28;1836;-43
2021/10/11 12:54:42;;;;;;;;;;;;;;;20.15;65.53;101007.00;5051671;28;1756;-44
2021/10/11 12:57:09;;;;;;;;;;;;;;;20.42;64.84;101029.69;5044805;28;1716;-44
2021/10/11 12:59:39;;;;;;;;;;;;;;;20.61;64.90;101019.00;5052735;28;1056;-44
2021/10/11 13:02:06;;;;;;;;;;;;;;;20.74;64.82;101012.50;5052886;28;1148;-43
2021/10/11 13:04:33;;;;;;;;;;;;;;;20.50;64.37;101015.56;5046874;28;1940;-43
2021/10/11 13:06:59;;;;;;;;;;;;;;;20.44;65.44;101007.06;5040114;28;1747;-45
2021/10/11 13:09:26;;;;;;;;;;;;;;;20.41;65.42;101017.22;5051187;28;1610;-43
2021/10/11 13:11:52;;;;;;;;;;;;;;;20.31;64.87;101027.94;5038393;28;1558;-43
2021/10/11 13:14:19;;;;;;;;;;;;;;;20.34;65.25;101003.50;5049614;28;2062;-44